Time;durP1;ratioP1;P1;durP2;ratioP2;P2;SDS_P1;SDS_P2;PMS_P1;PMS_P2;Temp;Humidity;BMP_temperature;BMP_pressure;BME280_temperature;BME280_humidity;BME280_pressure;Samples;Min_cycle;Max_cycle;Signal;HPM_P1;HPM_P2
2021/03/18 00:01:12;;;;;;;21.33;3.83;;;7.90;99.90;;;;;;5066517;28;20676;-92
2021/03/18 00:03:39;;;;;;;20.40;3.80;;;7.60;99.90;;;;;;5049441;28;20184;-91
2021/03/18 00:06:05;;;;;;;22.00;3.37;;;7.50;99.90;;;;;;5046895;28;20216;-92
2021/03/18 00:08:32;;;;;;;13.03;3.20;;;7.50;99.90;;;;;;5014183;28;20207;-93
2021/03/18 00:10:59;;;;;;;17.17;3.40;;;7.60;99.90;;;;;;5035040;28;20281;-92
2021/03/18 00:13:28;;;;;;;21.70;2.90;;;7.40;99.90;;;;;;5049919;28;20175;-91
2021/03/18 00:15:54;;;;;;;20.90;3.63;;;7.50;99.90;;;;;;5034467;28;20199;-91
2021/03/18 00:18:21;;;;;;;12.33;2.50;;;7.40;99.90;;;;;;5039663;28;20207;-91
2021/03/18 00:20:47;;;;;;;15.60;2.33;;;7.40;99.90;;;;;;5072269;28;20199;-91
2021/03/18 00:23:13;;;;;;;14.47;2.37;;;7.30;99.90;;;;;;5048271;28;20263;-92
2021/03/18 00:25:39;;;;;;;12.63;2.20;;;7.00;99.90;;;;;;5053154;28;20226;-91
2021/03/18 00:28:05;;;;;;;17.87;2.00;;;7.20;99.90;;;;;;5044168;28;20180;-91
2021/03/18 00:30:31;;;;;;;10.50;2.60;;;7.10;99.90;;;;;;5053429;28;20212;-90
2021/03/18 00:32:57;;;;;;;15.53;2.10;;;7.20;99.90;;;;;;5035123;28;20198;-91
2021/03/18 00:35:23;;;;;;;13.77;2.27;;;7.30;99.90;;;;;;5046859;28;20185;-90
2021/03/18 00:37:50;;;;;;;13.10;2.43;;;7.20;99.90;;;;;;5048391;28;20551;-92
2021/03/18 00:40:20;;;;;;;16.00;2.70;;;7.20;99.90;;;;;;5033162;28;20191;-90
2021/03/18 00:42:50;;;;;;;13.93;2.27;;;7.30;99.90;;;;;;5040476;28;20271;-93
2021/03/18 00:45:17;;;;;;;13.43;2.07;;;7.10;99.90;;;;;;5034411;28;20195;-91
2021/03/18 00:47:43;;;;;;;15.27;1.87;;;7.10;99.90;;;;;;5048033;28;20230;-91
2021/03/18 00:50:18;;;;;;;12.03;2.03;;;7.40;99.90;;;;;;5031087;28;20181;-91
2021/03/18 00:52:45;;;;;;;12.30;2.13;;;7.40;99.90;;;;;;5064052;28;20179;-91
2021/03/18 00:55:11;;;;;;;15.27;2.27;;;7.20;99.90;;;;;;5016248;28;20246;-92
2021/03/18 00:57:37;;;;;;;13.50;2.20;;;7.30;99.90;;;;;;5031959;28;20196;-92
2021/03/18 01:00:10;;;;;;;14.30;2.17;;;7.40;99.90;;;;;;5015048;28;20253;-92
2021/03/18 01:02:40;;;;;;;14.67;2.27;;;7.30;99.90;;;;;;5044010;28;20219;-92
2021/03/18 01:05:11;;;;;;;18.70;2.43;;;7.20;99.90;;;;;;5045449;28;20219;-92
2021/03/18 01:07:37;;;;;;;14.70;2.20;;;7.10;99.90;;;;;;5063996;28;20613;-93
2021/03/18 01:10:07;;;;;;;17.53;2.40;;;7.10;99.90;;;;;;5034360;28;20187;-94
2021/03/18 01:12:33;;;;;;;13.23;1.77;;;7.00;99.90;;;;;;5030308;28;20231;-93
2021/03/18 01:14:58;;;;;;;17.30;1.87;;;6.90;99.90;;;;;;5049504;28;20271;-94
2021/03/18 01:17:24;;;;;;;14.23;2.07;;;6.90;99.90;;;;;;5040391;28;20187;-93
2021/03/18 01:19:49;;;;;;;17.27;2.53;;;6.80;99.90;;;;;;5060901;28;20197;-91
2021/03/18 01:22:15;;;;;;;14.30;1.93;;;6.60;99.90;;;;;;5051069;28;20190;-92
2021/03/18 01:24:41;;;;;;;12.17;2.00;;;6.60;99.90;;;;;;5053240;28;20211;-93
2021/03/18 01:27:06;;;;;;;14.93;1.87;;;6.50;99.90;;;;;;5062554;28;20242;-93
2021/03/18 01:29:32;;;;;;;17.40;2.47;;;6.60;99.90;;;;;;5060733;28;20178;-93
2021/03/18 01:31:58;;;;;;;14.57;2.87;;;6.80;99.90;;;;;;5057708;28;20562;-92
2021/03/18 01:34:24;;;;;;;12.97;2.33;;;6.90;99.90;;;;;;5041641;28;20277;-93
2021/03/18 01:36:49;;;;;;;12.90;2.20;;;6.60;99.90;;;;;;5041833;28;20222;-91
2021/03/18 01:39:15;;;;;;;12.33;2.23;;;6.20;99.90;;;;;;5045824;28;20274;-92
2021/03/18 01:41:41;;;;;;;13.83;2.03;;;6.10;99.90;;;;;;5061939;28;20194;-93
2021/03/18 01:44:07;;;;;;;10.47;2.50;;;6.10;99.90;;;;;;5053369;28;20206;-94
2021/03/18 01:46:33;;;;;;;15.97;3.20;;;6.20;99.90;;;;;;5038932;28;20208;-93
2021/03/18 01:48:58;;;;;;;18.37;3.50;;;6.20;99.90;;;;;;5054835;28;20328;-93
2021/03/18 01:51:24;;;;;;;16.13;3.00;;;6.20;99.90;;;;;;5054075;28;20252;-94
2021/03/18 01:53:50;;;;;;;13.00;2.20;;;6.00;99.90;;;;;;5052805;28;20850;-94
2021/03/18 01:56:16;;;;;;;14.60;2.63;;;6.00;99.90;;;;;;5032362;28;20189;-93
2021/03/18 01:58:45;;;;;;;14.40;3.47;;;5.80;99.90;;;;;;5054306;28;20181;-94
2021/03/18 02:01:12;;;;;;;17.20;2.90;;;5.90;99.90;;;;;;5052146;28;20260;-92
2021/03/18 02:03:39;;;;;;;15.37;3.10;;;5.90;99.90;;;;;;5018057;28;20185;-92
2021/03/18 02:06:05;;;;;;;13.83;2.73;;;5.90;99.90;;;;;;5034373;28;20291;-91
2021/03/18 02:08:31;;;;;;;17.23;3.40;;;6.00;99.90;;;;;;5039400;28;20192;-92
2021/03/18 02:10:57;;;;;;;16.43;3.47;;;6.10;99.90;;;;;;5053485;28;20710;-92
2021/03/18 02:13:23;;;;;;;17.63;3.60;;;6.10;99.90;;;;;;5037200;28;20194;-92
2021/03/18 02:16:07;;;;;;;15.27;3.33;;;6.10;99.90;;;;;;5052017;28;20193;-92
2021/03/18 02:19:10;;;;;;;11.47;3.90;;;6.20;99.90;;;;;;5066876;28;20555;-92
2021/03/18 02:22:13;;;;;;;16.53;4.50;;;5.90;99.90;;;;;;5034986;28;20187;-92
2021/03/18 02:24:57;;;;;;;13.20;4.40;;;5.90;99.90;;;;;;5052904;28;20191;-92
2021/03/18 02:28:11;;;;;;;12.77;4.20;;;5.60;99.90;;;;;;5036273;28;20217;-92
2021/03/18 02:31:06;;;;;;;16.03;4.93;;;5.60;99.90;;;;;;5053309;28;20177;-92
2021/03/18 02:33:51;;;;;;;15.37;4.80;;;5.50;99.90;;;;;;5036756;28;20242;-93
2021/03/18 02:36:21;;;;;;;15.70;4.70;;;5.50;99.90;;;;;;5018859;28;20208;-93
2021/03/18 02:39:00;;;;;;;12.70;4.50;;;5.50;99.90;;;;;;5049413;28;20185;-92
2021/03/18 02:41:32;;;;;;;14.07;4.30;;;5.50;99.90;;;;;;5067832;28;20190;-92
2021/03/18 02:44:32;;;;;;;15.30;4.77;;;5.60;99.90;;;;;;5054789;28;20639;-92
2021/03/18 02:47:05;;;;;;;13.00;4.30;;;5.80;99.90;;;;;;5061592;28;20206;-92
2021/03/18 02:49:35;;;;;;;14.67;4.00;;;6.10;99.90;;;;;;5065029;28;20277;-92
2021/03/18 02:52:03;;;;;;;14.47;3.97;;;6.30;99.90;;;;;;5053006;28;20203;-93
2021/03/18 02:54:29;;;;;;;13.43;3.60;;;6.30;99.90;;;;;;5049846;28;20620;-93
2021/03/18 02:57:00;;;;;;;15.03;4.30;;;6.30;99.90;;;;;;5051463;28;20229;-92
2021/03/18 02:59:31;;;;;;;15.33;4.17;;;6.40;99.90;;;;;;5050852;28;20242;-91
2021/03/18 03:01:57;;;;;;;15.13;4.23;;;6.40;99.90;;;;;;5050248;28;20184;-90
2021/03/18 03:04:24;;;;;;;11.60;3.63;;;6.40;99.90;;;;;;5068847;28;20186;-91
2021/03/18 03:06:52;;;;;;;16.23;3.80;;;6.40;99.90;;;;;;5064767;28;20584;-91
2021/03/18 03:09:19;;;;;;;13.87;3.60;;;6.40;99.90;;;;;;5052740;28;20183;-90
2021/03/18 03:11:45;;;;;;;12.63;2.97;;;6.60;99.90;;;;;;5053809;28;20220;-91
2021/03/18 03:14:12;;;;;;;15.77;2.87;;;6.50;99.90;;;;;;5050956;28;20187;-92
2021/03/18 03:16:38;;;;;;;11.60;3.13;;;6.50;99.90;;;;;;5022992;28;20245;-92
2021/03/18 03:19:06;;;;;;;17.17;4.03;;;6.50;99.90;;;;;;5053003;28;20180;-93
2021/03/18 03:21:33;;;;;;;19.03;3.67;;;6.60;99.90;;;;;;5037081;28;20249;-92
2021/03/18 03:24:00;;;;;;;9.97;3.40;;;6.50;99.90;;;;;;5068560;28;20191;-92
2021/03/18 03:26:26;;;;;;;14.60;3.07;;;6.20;99.90;;;;;;5034836;28;20254;-92
2021/03/18 03:28:53;;;;;;;12.17;3.40;;;6.20;99.90;;;;;;5036435;28;20175;-93
2021/03/18 03:31:19;;;;;;;14.87;3.30;;;6.10;99.90;;;;;;5068408;28;20176;-90
2021/03/18 03:33:45;;;;;;;10.70;3.00;;;6.30;99.90;;;;;;5051175;28;20642;-91
2021/03/18 03:36:12;;;;;;;16.97;3.80;;;6.40;99.90;;;;;;5051124;28;20266;-95
2021/03/18 03:38:38;;;;;;;14.23;4.10;;;6.40;99.90;;;;;;5050835;28;20199;-92
2021/03/18 03:41:06;;;;;;;10.70;2.73;;;6.50;99.90;;;;;;5018644;28;20180;-90
2021/03/18 03:43:32;;;;;;;13.77;3.17;;;6.60;99.90;;;;;;5035324;28;20592;-90
2021/03/18 03:45:59;;;;;;;14.70;3.37;;;6.70;99.90;;;;;;5068023;28;20562;-93
2021/03/18 03:48:29;;;;;;;13.60;3.03;;;6.70;99.90;;;;;;5036936;28;20198;-92
2021/03/18 03:50:55;;;;;;;12.30;3.07;;;6.70;99.90;;;;;;5046239;28;20234;-92
2021/03/18 03:53:27;;;;;;;11.83;3.10;;;6.80;99.90;;;;;;5033032;28;20187;-92
2021/03/18 03:56:03;;;;;;;13.23;2.90;;;6.90;99.90;;;;;;5032390;28;20189;-93
2021/03/18 03:58:40;;;;;;;16.50;3.63;;;6.70;99.90;;;;;;5036504;28;20656;-92
2021/03/18 04:01:12;;;;;;;15.37;3.20;;;6.60;99.90;;;;;;5051803;28;20184;-93
2021/03/18 04:03:38;;;;;;;11.50;3.20;;;6.50;99.90;;;;;;5040571;28;20199;-91
2021/03/18 04:06:05;;;;;;;11.90;3.33;;;6.40;99.90;;;;;;5067768;28;20222;-92
2021/03/18 04:08:35;;;;;;;11.00;2.70;;;6.30;99.90;;;;;;5069725;28;20199;-91
2021/03/18 04:11:02;;;;;;;12.10;2.57;;;6.20;99.90;;;;;;5039665;28;20273;-92
2021/03/18 04:13:30;;;;;;;9.37;3.23;;;6.20;99.90;;;;;;5054457;28;20181;-93
2021/03/18 04:16:01;;;;;;;15.17;2.90;;;6.20;99.90;;;;;;5052670;28;20188;-91
2021/03/18 04:18:33;;;;;;;13.43;3.10;;;6.30;99.90;;;;;;5034022;28;20173;-91
2021/03/18 04:21:00;;;;;;;15.90;2.80;;;6.50;99.90;;;;;;5051041;28;20184;-91
2021/03/18 04:23:27;;;;;;;10.63;3.03;;;6.70;99.90;;;;;;5052294;28;20182;-91
2021/03/18 04:25:56;;;;;;;9.90;2.57;;;6.80;99.90;;;;;;5066162;28;20211;-91
2021/03/18 04:28:24;;;;;;;16.17;3.03;;;6.80;99.90;;;;;;5035538;28;20326;-91
2021/03/18 04:30:50;;;;;;;13.87;2.90;;;6.90;99.90;;;;;;5035615;28;20191;-92
2021/03/18 04:33:16;;;;;;;10.90;2.80;;;7.00;99.90;;;;;;5056709;28;20709;-91
2021/03/18 04:35:42;;;;;;;13.07;2.60;;;7.00;99.90;;;;;;5052075;28;20179;-91
2021/03/18 04:38:08;;;;;;;14.83;2.50;;;7.10;99.90;;;;;;5053610;28;20190;-91
2021/03/18 04:40:35;;;;;;;15.73;2.80;;;7.10;99.90;;;;;;5053365;28;20211;-92
2021/03/18 04:43:02;;;;;;;12.60;2.33;;;7.20;99.90;;;;;;5052769;28;20550;-91
2021/03/18 04:45:31;;;;;;;12.90;3.10;;;7.10;99.90;;;;;;5052429;28;20205;-91
2021/03/18 04:47:59;;;;;;;16.77;2.87;;;7.10;99.90;;;;;;5035536;28;20230;-91
2021/03/18 04:50:32;;;;;;;13.47;2.70;;;7.20;99.90;;;;;;5050012;28;20716;-91
2021/03/18 04:52:58;;;;;;;12.30;2.57;;;7.20;99.90;;;;;;5052652;28;20187;-91
2021/03/18 04:55:24;;;;;;;11.67;2.63;;;7.20;99.90;;;;;;5066678;28;20188;-91
2021/03/18 04:57:55;;;;;;;10.43;2.40;;;7.30;99.90;;;;;;5030521;28;20239;-90
2021/03/18 05:00:22;;;;;;;12.37;2.63;;;7.20;99.90;;;;;;5046886;28;20184;-91
2021/03/18 05:02:49;;;;;;;10.70;3.20;;;7.20;99.90;;;;;;5037303;28;20209;-91
2021/03/18 05:05:18;;;;;;;12.00;2.80;;;7.20;99.90;;;;;;5031314;28;20324;-91
2021/03/18 05:07:46;;;;;;;14.87;2.47;;;7.30;99.90;;;;;;5061744;28;20196;-90
2021/03/18 05:10:15;;;;;;;15.10;2.83;;;7.40;99.90;;;;;;5039560;28;20701;-91
2021/03/18 05:12:42;;;;;;;12.60;3.03;;;7.50;99.90;;;;;;5041077;28;20215;-91
2021/03/18 05:15:09;;;;;;;15.63;2.80;;;7.50;99.90;;;;;;5025005;28;20561;-92
2021/03/18 05:17:39;;;;;;;17.77;3.13;;;7.50;99.90;;;;;;5054254;28;20211;-91
2021/03/18 05:20:07;;;;;;;13.80;3.37;;;7.50;99.90;;;;;;5057267;28;20268;-92
2021/03/18 05:22:33;;;;;;;17.90;4.00;;;7.50;99.90;;;;;;5069091;28;20185;-91
2021/03/18 05:25:01;;;;;;;17.20;4.77;;;7.60;99.90;;;;;;5038600;28;20208;-93
2021/03/18 05:27:26;;;;;;;14.37;4.57;;;7.60;99.90;;;;;;5055736;28;20227;-92
2021/03/18 05:29:53;;;;;;;20.40;5.60;;;7.60;99.90;;;;;;5064588;28;20203;-90
2021/03/18 05:32:18;;;;;;;17.33;5.73;;;7.50;99.90;;;;;;5041625;28;20670;-92
2021/03/18 05:34:50;;;;;;;19.00;5.63;;;7.40;99.90;;;;;;5023839;28;20200;-93
2021/03/18 05:37:16;;;;;;;12.33;4.53;;;7.40;99.90;;;;;;5070407;28;20180;-93
2021/03/18 05:39:42;;;;;;;15.60;4.80;;;7.40;99.90;;;;;;5052613;28;20189;-94
2021/03/18 05:42:08;;;;;;;11.27;3.90;;;7.30;99.90;;;;;;5010903;28;20650;-93
2021/03/18 05:44:33;;;;;;;19.30;4.50;;;7.30;99.90;;;;;;5038551;28;20673;-93
2021/03/18 05:47:01;;;;;;;11.17;3.70;;;7.30;99.90;;;;;;5037373;28;20235;-94
2021/03/18 05:49:28;;;;;;;15.03;4.03;;;7.30;99.90;;;;;;5056258;28;20279;-93
2021/03/18 05:51:56;;;;;;;11.13;3.83;;;7.20;99.90;;;;;;5040327;28;20277;-93
2021/03/18 05:54:23;;;;;;;17.03;4.17;;;7.20;99.90;;;;;;5053937;28;20215;-92
2021/03/18 05:56:55;;;;;;;13.50;4.20;;;7.20;99.90;;;;;;5054762;28;20187;-93
2021/03/18 05:59:23;;;;;;;14.80;4.30;;;7.00;99.90;;;;;;5053728;28;20630;-94
2021/03/18 06:01:49;;;;;;;17.63;4.83;;;7.00;99.90;;;;;;5051204;28;20192;-92
2021/03/18 06:04:19;;;;;;;18.13;4.60;;;7.10;99.90;;;;;;5053347;28;20207;-93
2021/03/18 06:06:45;;;;;;;14.03;4.17;;;7.20;99.90;;;;;;5066675;28;20196;-95
2021/03/18 06:09:11;;;;;;;13.20;4.33;;;7.10;99.90;;;;;;5054148;28;20581;-93
2021/03/18 06:11:39;;;;;;;18.83;4.67;;;7.00;99.90;;;;;;5054302;28;20471;-95
2021/03/18 06:14:04;;;;;;;12.80;4.03;;;7.10;99.90;;;;;;5039344;28;20176;-95
2021/03/18 06:16:31;;;;;;;17.43;4.80;;;7.20;99.90;;;;;;5055035;28;20194;-94
2021/03/18 06:19:01;;;;;;;13.53;4.47;;;7.20;99.90;;;;;;5053232;28;20474;-93
2021/03/18 06:21:57;;;;;;;12.33;4.10;;;7.20;99.90;;;;;;5054455;28;21135;-91
2021/03/18 06:24:28;;;;;;;16.43;4.53;;;7.10;99.90;;;;;;5022336;28;20200;-91
2021/03/18 06:26:56;;;;;;;14.63;5.00;;;7.20;99.90;;;;;;5037670;28;20214;-91
2021/03/18 06:29:30;;;;;;;17.60;5.10;;;7.20;99.90;;;;;;5053546;28;20184;-92
2021/03/18 06:32:00;;;;;;;15.63;4.90;;;7.30;99.90;;;;;;5035852;28;20231;-93
2021/03/18 06:34:48;;;;;;;18.43;5.63;;;7.40;99.90;;;;;;5052790;28;20693;-93
2021/03/18 06:37:43;;;;;;;17.70;4.70;;;7.40;99.90;;;;;;5021902;28;20304;-94
2021/03/18 06:40:17;;;;;;;16.60;5.37;;;7.50;99.90;;;;;;5049749;28;20181;-92
2021/03/18 06:43:00;;;;;;;16.40;5.47;;;7.30;99.90;;;;;;5027863;28;20184;-93
2021/03/18 06:45:34;;;;;;;21.30;5.90;;;7.30;99.90;;;;;;5039480;28;20204;-93
2021/03/18 06:48:06;;;;;;;21.03;6.07;;;7.20;99.90;;;;;;5035802;28;20382;-93
2021/03/18 06:50:44;;;;;;;17.70;6.00;;;7.10;99.90;;;;;;5053144;28;20210;-92
2021/03/18 06:53:30;;;;;;;19.23;6.20;;;7.20;99.90;;;;;;5022471;28;20197;-92
2021/03/18 06:56:01;;;;;;;16.63;6.73;;;7.30;99.90;;;;;;5065613;28;20546;-91
2021/03/18 06:58:28;;;;;;;16.97;5.67;;;7.40;99.90;;;;;;5050404;28;20243;-92
2021/03/18 07:00:57;;;;;;;18.30;7.13;;;7.40;99.90;;;;;;5051025;28;20194;-92
2021/03/18 07:03:28;;;;;;;17.13;6.67;;;7.60;99.90;;;;;;5034673;28;20192;-91
2021/03/18 07:05:55;;;;;;;17.33;6.47;;;7.70;99.90;;;;;;5035801;28;20286;-92
2021/03/18 07:08:24;;;;;;;20.80;6.70;;;7.80;99.90;;;;;;5053040;28;20176;-92
2021/03/18 07:10:50;;;;;;;16.93;6.80;;;8.00;99.90;;;;;;5051469;28;20183;-92
2021/03/18 07:13:31;;;;;;;21.77;7.37;;;8.10;99.90;;;;;;5012300;28;20263;-92
2021/03/18 07:15:59;;;;;;;23.53;7.63;;;8.20;99.90;;;;;;5067196;28;20242;-90
2021/03/18 07:18:26;;;;;;;20.20;7.67;;;8.40;99.90;;;;;;5032672;28;20238;-90
2021/03/18 07:21:12;;;;;;;21.20;7.40;;;8.50;99.90;;;;;;5065810;28;20250;-92
2021/03/18 07:23:43;;;;;;;21.23;7.30;;;8.50;99.90;;;;;;5050169;28;20206;-92
2021/03/18 07:26:18;;;;;;;20.63;6.83;;;8.60;99.90;;;;;;5050555;28;20229;-91
2021/03/18 07:28:46;;;;;;;18.13;6.60;;;8.60;99.90;;;;;;5022680;28;20190;-92
2021/03/18 07:31:13;;;;;;;22.37;6.73;;;8.60;99.90;;;;;;5052347;28;20703;-91
2021/03/18 07:33:39;;;;;;;20.97;7.07;;;8.70;99.90;;;;;;5034204;28;20272;-91
2021/03/18 07:36:05;;;;;;;24.63;7.40;;;8.80;99.90;;;;;;5052619;28;20195;-91
2021/03/18 07:38:31;;;;;;;23.13;7.10;;;8.80;99.90;;;;;;5050868;28;20188;-91
2021/03/18 07:40:57;;;;;;;18.20;6.90;;;8.70;99.90;;;;;;5019236;28;20191;-90
2021/03/18 07:43:24;;;;;;;20.80;7.80;;;8.60;99.90;;;;;;5051897;28;20271;-91
2021/03/18 07:45:52;;;;;;;22.40;7.43;;;8.80;99.90;;;;;;5050268;28;20254;-92
2021/03/18 07:48:26;;;;;;;16.87;7.43;;;8.90;99.90;;;;;;5064641;28;20181;-91
2021/03/18 07:50:55;;;;;;;15.10;7.33;;;9.00;99.90;;;;;;5035845;28;20190;-91
2021/03/18 07:53:22;;;;;;;20.73;6.87;;;9.00;99.90;;;;;;5015842;28;20748;-91
2021/03/18 07:55:49;;;;;;;23.00;7.07;;;9.10;99.90;;;;;;5030617;28;20714;-91
2021/03/18 07:58:42;;;;;;;17.10;6.60;;;9.20;99.90;;;;;;5049549;28;20290;-90
2021/03/18 08:01:28;;;;;;;15.97;6.93;;;9.20;99.90;;;;;;5060600;28;20308;-92
2021/03/18 08:03:54;;;;;;;17.47;7.00;;;9.20;99.90;;;;;;5021491;28;20200;-91
2021/03/18 08:06:39;;;;;;;21.10;6.73;;;9.40;99.90;;;;;;5033450;28;20374;-92
2021/03/18 08:09:37;;;;;;;19.10;6.73;;;9.50;99.90;;;;;;5036280;28;20188;-91
2021/03/18 08:12:03;;;;;;;18.00;7.17;;;9.60;99.90;;;;;;5035359;28;20276;-92
2021/03/18 08:14:29;;;;;;;24.00;8.27;;;9.70;99.90;;;;;;5051431;28;20654;-91
2021/03/18 08:16:55;;;;;;;24.50;9.97;;;9.80;99.90;;;;;;5051879;28;20192;-91
2021/03/18 08:19:21;;;;;;;18.70;9.27;;;9.90;99.90;;;;;;5045249;28;20226;-91
2021/03/18 08:21:54;;;;;;;21.03;9.83;;;9.80;99.90;;;;;;5056456;28;20188;-91
2021/03/18 08:24:32;;;;;;;21.00;8.00;;;9.80;99.90;;;;;;5059118;28;20264;-91
2021/03/18 08:27:05;;;;;;;19.13;7.40;;;9.70;99.90;;;;;;5037108;28;20692;-91
2021/03/18 08:29:43;;;;;;;18.07;6.90;;;9.60;99.90;;;;;;5049660;28;20180;-91
2021/03/18 08:32:29;;;;;;;21.13;6.23;;;9.30;99.90;;;;;;5048605;28;20180;-90
2021/03/18 08:34:57;;;;;;;14.43;6.17;;;9.00;99.90;;;;;;5069896;28;20178;-91
2021/03/18 08:37:36;;;;;;;14.87;5.03;;;9.20;99.90;;;;;;5039673;28;20181;-91
2021/03/18 08:40:19;;;;;;;16.33;4.50;;;9.40;99.90;;;;;;5053299;28;20206;-91
2021/03/18 08:42:49;;;;;;;13.73;3.93;;;9.20;99.90;;;;;;5054853;28;20248;-91
2021/03/18 08:45:18;;;;;;;14.40;3.80;;;9.40;99.90;;;;;;5071487;28;20251;-90
2021/03/18 08:47:50;;;;;;;14.67;3.30;;;9.50;99.90;;;;;;5064880;28;20180;-90
2021/03/18 08:50:25;;;;;;;10.23;3.77;;;10.00;99.90;;;;;;5041066;28;20189;-90
2021/03/18 08:52:52;;;;;;;14.87;4.40;;;10.30;99.90;;;;;;5092341;28;20212;-93
2021/03/18 08:55:37;;;;;;;15.30;4.60;;;10.60;99.90;;;;;;5063560;28;20194;-93
2021/03/18 08:58:04;;;;;;;14.10;4.90;;;10.90;99.90;;;;;;5037807;28;20211;-93
2021/03/18 09:00:31;;;;;;;14.77;3.60;;;11.10;99.90;;;;;;5022391;28;20181;-94
2021/03/18 09:02:57;;;;;;;12.30;4.00;;;11.00;99.90;;;;;;5057456;28;20195;-92
2021/03/18 09:05:23;;;;;;;17.13;6.40;;;11.10;99.90;;;;;;5048248;28;20714;-92
2021/03/18 09:07:55;;;;;;;15.00;5.23;;;11.10;99.90;;;;;;5057369;28;20201;-94
2021/03/18 09:10:26;;;;;;;12.43;4.70;;;11.20;99.90;;;;;;5069821;28;20180;-93
2021/03/18 09:12:53;;;;;;;12.43;4.50;;;11.50;99.90;;;;;;5019712;28;20229;-93
2021/03/18 09:15:36;;;;;;;14.63;4.73;;;11.70;99.90;;;;;;5022374;28;20192;-92
2021/03/18 09:18:26;;;;;;;14.07;4.33;;;11.90;99.90;;;;;;5039101;28;20182;-93
2021/03/18 09:21:08;;;;;;;14.33;4.37;;;11.80;99.90;;;;;;5035490;28;21417;-95
2021/03/18 09:23:45;;;;;;;11.60;4.33;;;11.50;99.90;;;;;;5055630;28;20210;-93
2021/03/18 09:26:14;;;;;;;14.90;5.20;;;11.50;99.90;;;;;;5037272;28;20205;-94
2021/03/18 09:28:46;;;;;;;20.70;4.80;;;11.50;99.90;;;;;;5055821;28;20190;-92
2021/03/18 09:31:13;;;;;;;14.33;4.77;;;11.40;99.90;;;;;;5054251;28;20189;-93
2021/03/18 09:33:41;;;;;;;12.47;4.27;;;11.40;99.90;;;;;;5054180;28;20201;-93
2021/03/18 09:36:17;;;;;;;13.53;5.23;;;11.30;99.90;;;;;;5038107;28;20179;-93
2021/03/18 09:38:56;;;;;;;18.60;6.00;;;11.40;99.90;;;;;;5053360;28;20183;-93
2021/03/18 09:41:27;;;;;;;16.03;5.00;;;11.50;99.90;;;;;;5019459;28;20177;-92
2021/03/18 09:44:10;;;;;;;16.90;5.00;;;11.50;99.90;;;;;;5037049;28;20210;-94
2021/03/18 09:46:40;;;;;;;17.47;5.10;;;11.50;99.90;;;;;;5021482;28;20692;-94
2021/03/18 09:49:07;;;;;;;12.60;4.67;;;11.10;99.90;;;;;;5046633;28;20182;-93
2021/03/18 09:51:39;;;;;;;23.43;7.77;;;11.10;99.90;;;;;;5053244;28;20179;-93
2021/03/18 09:54:08;;;;;;;19.13;6.00;;;11.20;99.90;;;;;;5051601;28;20645;-92
2021/03/18 09:56:43;;;;;;;18.93;6.57;;;11.10;99.90;;;;;;5066856;28;20198;-92
2021/03/18 09:59:13;;;;;;;21.27;6.23;;;10.70;99.90;;;;;;5061919;28;20181;-92
2021/03/18 10:01:38;;;;;;;16.07;6.20;;;10.80;99.90;;;;;;5031324;28;20279;-93
2021/03/18 10:04:14;;;;;;;18.57;6.90;;;10.80;99.90;;;;;;5054976;28;20217;-92
2021/03/18 10:06:47;;;;;;;17.77;6.80;;;10.90;99.90;;;;;;5052460;28;20201;-93
2021/03/18 10:09:33;;;;;;;18.10;6.80;;;11.00;99.90;;;;;;5037003;28;20182;-94
2021/03/18 10:12:01;;;;;;;34.03;14.33;;;11.20;99.90;;;;;;5058368;28;20227;-93
2021/03/18 10:14:32;;;;;;;34.33;15.20;;;11.30;99.90;;;;;;5036943;28;20190;-89
2021/03/18 10:17:03;;;;;;;21.03;7.30;;;11.30;99.90;;;;;;5023844;28;20732;-92
2021/03/18 10:19:32;;;;;;;36.77;10.97;;;10.80;99.90;;;;;;5058933;28;20185;-92
2021/03/18 10:22:09;;;;;;;23.67;8.27;;;10.80;99.90;;;;;;5038285;28;20268;-92
2021/03/18 10:24:36;;;;;;;18.30;7.00;;;10.80;99.90;;;;;;5038229;28;20372;-92
2021/03/18 10:27:15;;;;;;;22.17;8.23;;;10.80;99.90;;;;;;5018883;28;20214;-91
2021/03/18 10:29:42;;;;;;;24.93;8.47;;;10.80;99.90;;;;;;5069955;28;20280;-92
2021/03/18 10:32:18;;;;;;;29.60;7.47;;;10.60;99.90;;;;;;5054592;28;20187;-92
2021/03/18 10:34:54;;;;;;;26.93;7.90;;;10.70;99.90;;;;;;5051039;28;20264;-93
2021/03/18 10:37:31;;;;;;;23.50;8.57;;;10.50;99.90;;;;;;5038433;28;20182;-94
2021/03/18 10:40:25;;;;;;;23.37;7.77;;;10.50;99.90;;;;;;5038147;28;20186;-92
2021/03/18 10:42:52;;;;;;;26.90;7.83;;;10.60;99.90;;;;;;5031669;28;20193;-92
2021/03/18 10:45:25;;;;;;;28.60;9.10;;;10.60;99.90;;;;;;5051644;28;20208;-92
2021/03/18 10:48:01;;;;;;;27.47;8.43;;;10.70;99.90;;;;;;5051135;28;20194;-94
2021/03/18 10:50:30;;;;;;;23.60;8.03;;;10.70;99.90;;;;;;5049837;28;20182;-93
2021/03/18 10:53:02;;;;;;;26.50;8.87;;;10.60;99.90;;;;;;5033857;28;20193;-93
2021/03/18 10:55:31;;;;;;;28.00;8.50;;;10.50;99.90;;;;;;5053337;28;20574;-92
2021/03/18 10:58:09;;;;;;;30.90;8.90;;;10.60;99.90;;;;;;5035894;28;20648;-93
2021/03/18 11:00:38;;;;;;;36.77;9.47;;;10.60;99.90;;;;;;5051973;28;20641;-92
2021/03/18 11:03:14;;;;;;;26.27;9.00;;;10.80;99.90;;;;;;5023900;28;20282;-92
2021/03/18 11:05:45;;;;;;;25.40;8.57;;;10.90;99.90;;;;;;5051001;28;20470;-92
2021/03/18 11:08:12;;;;;;;26.33;8.80;;;10.90;99.90;;;;;;5036090;28;20181;-93
2021/03/18 11:10:49;;;;;;;28.87;9.40;;;10.90;99.90;;;;;;5055976;28;20193;-93
2021/03/18 11:13:21;;;;;;;26.30;8.70;;;11.00;99.90;;;;;;5021152;28;20322;-93
2021/03/18 11:15:48;;;;;;;28.73;9.43;;;11.10;99.90;;;;;;5033792;28;20696;-92
2021/03/18 11:18:15;;;;;;;27.07;8.53;;;11.00;99.90;;;;;;5055209;28;20178;-92
2021/03/18 11:20:43;;;;;;;26.70;8.77;;;11.10;99.90;;;;;;5020050;28;20247;-93
2021/03/18 11:23:11;;;;;;;33.20;9.43;;;10.90;99.90;;;;;;5037781;28;20199;-92
2021/03/18 11:25:38;;;;;;;25.27;9.03;;;10.80;99.90;;;;;;5042193;28;20353;-92
2021/03/18 11:28:04;;;;;;;33.63;9.97;;;10.70;99.90;;;;;;5085023;28;20165;-92
2021/03/18 11:30:36;;;;;;;30.20;10.27;;;10.80;99.90;;;;;;5044076;28;20213;-91
2021/03/18 11:33:07;;;;;;;26.93;8.43;;;10.80;99.90;;;;;;5063864;28;20197;-92
2021/03/18 11:35:33;;;;;;;29.03;8.20;;;10.70;99.90;;;;;;5050946;28;20228;-92
2021/03/18 11:37:59;;;;;;;22.63;8.40;;;10.60;99.90;;;;;;5059914;28;20179;-92
2021/03/18 11:40:25;;;;;;;25.73;8.07;;;10.60;99.90;;;;;;5043884;28;20260;-92
2021/03/18 11:42:51;;;;;;;33.63;9.80;;;10.70;99.90;;;;;;5044701;28;20194;-91
2021/03/18 11:45:17;;;;;;;35.70;9.67;;;10.90;99.90;;;;;;5021267;28;20218;-92
2021/03/18 11:47:42;;;;;;;42.50;10.97;;;10.80;99.90;;;;;;5072191;28;20182;-92
2021/03/18 11:50:09;;;;;;;34.00;9.97;;;10.70;99.90;;;;;;5038978;28;20197;-92
2021/03/18 11:52:35;;;;;;;36.37;11.27;;;10.70;99.90;;;;;;5060911;28;20194;-92
2021/03/18 11:55:01;;;;;;;39.50;11.10;;;10.90;99.90;;;;;;5049711;28;20212;-93
2021/03/18 11:57:27;;;;;;;37.60;10.83;;;10.90;99.90;;;;;;5031574;28;20589;-93
2021/03/18 11:59:52;;;;;;;37.57;10.53;;;10.90;99.90;;;;;;5031883;28;20188;-94
2021/03/18 12:02:18;;;;;;;30.73;9.53;;;10.90;99.90;;;;;;5049732;28;20177;-94
2021/03/18 12:04:44;;;;;;;37.33;11.00;;;11.00;99.90;;;;;;5047269;28;20187;-93
2021/03/18 12:07:09;;;;;;;27.67;8.63;;;10.90;99.90;;;;;;5044562;28;20218;-93
2021/03/18 12:09:35;;;;;;;29.03;8.57;;;11.10;99.90;;;;;;5014345;28;20181;-93
2021/03/18 12:12:01;;;;;;;26.10;7.43;;;11.30;99.90;;;;;;5034076;28;20298;-92
2021/03/18 12:14:27;;;;;;;23.77;7.40;;;11.50;99.90;;;;;;5014753;28;20178;-93
2021/03/18 12:16:52;;;;;;;28.27;7.90;;;11.90;99.90;;;;;;5061236;28;20210;-93
2021/03/18 12:19:18;;;;;;;29.17;8.83;;;11.80;99.90;;;;;;5046543;28;20247;-94
2021/03/18 12:21:44;;;;;;;31.23;8.03;;;12.10;99.90;;;;;;5045202;28;20229;-93
2021/03/18 12:24:11;;;;;;;21.00;7.13;;;12.30;99.90;;;;;;5034023;28;20187;-93
2021/03/18 12:26:40;;;;;;;24.03;8.10;;;12.50;99.90;;;;;;5035072;28;20265;-93
2021/03/18 12:29:06;;;;;;;27.73;7.30;;;12.60;99.90;;;;;;5031339;28;20181;-92
2021/03/18 12:31:31;;;;;;;23.23;8.07;;;12.60;99.90;;;;;;5049549;28;20198;-93
2021/03/18 12:33:59;;;;;;;27.47;7.83;;;12.20;99.90;;;;;;5037822;28;20175;-93
2021/03/18 12:36:25;;;;;;;25.57;8.07;;;12.00;99.90;;;;;;5031308;28;20206;-93
2021/03/18 12:38:53;;;;;;;28.37;8.40;;;12.10;99.90;;;;;;5048639;28;20250;-93
2021/03/18 12:41:18;;;;;;;26.97;8.97;;;12.10;99.90;;;;;;5032141;28;20189;-92
2021/03/18 12:43:44;;;;;;;22.73;7.90;;;12.20;99.90;;;;;;5051491;28;20614;-92
2021/03/18 12:46:10;;;;;;;30.63;8.50;;;12.40;99.90;;;;;;5016563;28;20222;-92
2021/03/18 12:48:36;;;;;;;23.33;8.43;;;12.50;99.90;;;;;;5034301;28;20254;-92
2021/03/18 12:51:01;;;;;;;24.27;8.80;;;12.70;99.90;;;;;;5015919;28;20542;-92
2021/03/18 12:53:27;;;;;;;27.17;8.30;;;12.60;99.90;;;;;;5016894;28;20234;-92
2021/03/18 12:55:53;;;;;;;29.37;8.33;;;12.60;99.90;;;;;;5047111;28;20191;-89
2021/03/18 12:58:19;;;;;;;27.03;8.23;;;12.40;99.90;;;;;;5015716;28;20204;-92